createdAt,value
2018-08-12T14:15:25.728Z,28.46
2018-08-12T14:18:54.800Z,28.63
2018-08-12T14:21:32.131Z,28.75
2018-08-12T14:24:09.744Z,28.88
2018-08-12T14:26:47.174Z,28.97
2018-08-12T14:29:24.753Z,28.81
2018-08-12T14:32:02.761Z,28.69
2018-08-12T14:34:39.535Z,28.71
2018-08-12T14:37:15.066Z,28.75
2018-08-12T14:39:48.657Z,28.78
2018-08-12T14:42:24.531Z,28.78
2018-08-12T14:45:00.862Z,28.81
2018-08-12T14:47:38.468Z,28.82
2018-08-12T14:50:19.444Z,28.81
2018-08-12T14:52:55.332Z,28.79
2018-08-12T14:55:31.599Z,28.80
2018-08-12T14:58:07.871Z,28.81
2018-08-12T15:00:43.970Z,28.81
2018-08-12T15:03:21.525Z,28.80
2018-08-12T15:05:58.565Z,28.79
2018-08-12T15:08:36.651Z,28.80
2018-08-12T15:11:13.650Z,28.80
2018-08-12T15:13:49.751Z,28.79
2018-08-12T15:16:26.748Z,28.62
2018-08-12T15:19:03.020Z,28.23
2018-08-12T15:21:39.098Z,28.77
2018-08-12T15:24:15.342Z,29.00
2018-08-12T15:26:51.458Z,29.12
2018-08-12T15:29:27.878Z,29.19
2018-08-12T15:32:03.977Z,29.25
2018-08-12T15:34:45.252Z,29.31
2018-08-12T15:37:23.576Z,29.34
2018-08-12T15:40:05.183Z,29.35
2018-08-12T15:42:42.337Z,29.33
2018-08-12T15:45:20.097Z,29.37
2018-08-12T15:47:56.260Z,29.38
2018-08-12T15:50:32.390Z,29.40
2018-08-12T15:53:10.229Z,29.40
2018-08-12T15:55:45.965Z,29.37
2018-08-12T15:58:22.043Z,29.42
2018-08-12T16:00:58.179Z,29.48
2018-08-12T16:03:34.511Z,29.50
2018-08-12T16:06:12.315Z,29.55
2018-08-12T16:08:48.791Z,29.57
2018-08-12T16:11:25.770Z,29.57
2018-08-12T16:14:01.816Z,29.59
2018-08-12T16:16:38.037Z,29.59
2018-08-12T16:19:14.186Z,29.59
2018-08-12T16:21:51.417Z,29.57
2018-08-12T16:24:27.774Z,29.56
2018-08-12T16:27:03.973Z,29.53
2018-08-12T16:29:39.840Z,29.52
2018-08-12T16:32:16.116Z,29.47
2018-08-12T16:34:50.195Z,29.48
2018-08-12T16:37:26.532Z,29.49
2018-08-12T16:40:02.899Z,29.47
2018-08-12T16:42:40.136Z,29.43
2018-08-12T16:45:16.511Z,29.43
2018-08-12T16:47:52.815Z,29.42
2018-08-12T16:50:30.128Z,29.46
2018-08-12T16:53:06.580Z,29.45
2018-08-12T16:55:42.955Z,29.42
2018-08-12T16:58:19.473Z,29.42
2018-08-12T17:00:55.597Z,29.39
2018-08-12T17:03:31.828Z,29.36
2018-08-12T17:06:05.829Z,29.36
2018-08-12T17:08:43.233Z,29.36
2018-08-12T17:11:20.912Z,29.35
2018-08-12T17:13:57.043Z,29.36
2018-08-12T17:16:32.802Z,29.33
2018-08-12T17:19:10.257Z,29.36
2018-08-12T17:21:45.993Z,29.40
2018-08-12T17:24:21.732Z,29.41
2018-08-12T17:27:00.019Z,29.41
2018-08-12T17:29:33.735Z,29.40
2018-08-12T17:32:11.270Z,29.38
2018-08-12T17:34:48.005Z,29.41
2018-08-12T17:37:21.722Z,29.43
2018-08-12T17:39:57.805Z,29.44
2018-08-12T17:42:33.615Z,29.46
2018-08-12T17:45:10.599Z,29.49
2018-08-12T17:49:37.061Z,29.56
2018-08-12T17:52:12.709Z,29.58
2018-08-12T17:54:48.547Z,29.57
2018-08-12T17:57:24.445Z,29.64
2018-08-12T18:00:02.364Z,29.65
2018-08-12T18:02:38.272Z,29.57
2018-08-12T18:05:14.081Z,29.52
2018-08-12T18:07:49.804Z,29.47
2018-08-12T18:10:28.018Z,29.44
2018-08-12T18:13:04.819Z,29.43
2018-08-12T18:15:40.541Z,29.44
2018-08-12T18:18:16.590Z,29.51
2018-08-12T18:20:52.334Z,29.55
2018-08-12T18:23:28.163Z,29.57
2018-08-12T18:26:05.083Z,29.60
2018-08-12T18:28:41.049Z,29.62
2018-08-12T18:31:16.859Z,29.64
2018-08-12T18:33:52.828Z,29.67
2018-08-12T18:36:28.614Z,29.69
2018-08-12T18:39:04.630Z,29.72
2018-08-12T18:41:41.549Z,29.75
2018-08-12T18:44:17.163Z,29.77
2018-08-12T18:46:52.943Z,29.79
2018-08-12T18:49:29.842Z,29.81
2018-08-12T18:52:06.519Z,29.83
2018-08-12T18:54:42.341Z,29.83
2018-08-12T18:57:18.154Z,29.83
2018-08-12T18:59:53.818Z,29.85
2018-08-12T19:02:29.567Z,29.88
2018-08-12T19:05:06.091Z,29.88
2018-08-12T19:07:43.295Z,29.90
2018-08-12T19:10:19.095Z,29.93
2018-08-12T19:12:54.835Z,29.93
2018-08-12T19:15:30.585Z,29.96
2018-08-12T19:18:07.730Z,29.97
2018-08-12T19:20:43.220Z,29.98
2018-08-12T19:23:19.082Z,29.99
2018-08-12T19:25:54.629Z,30.00
2018-08-12T19:28:31.272Z,30.02
2018-08-12T19:31:06.844Z,30.02
2018-08-12T19:33:42.739Z,30.03
2018-08-12T19:36:19.880Z,30.04
2018-08-12T19:38:55.632Z,30.06
2018-08-12T19:41:32.971Z,30.08
2018-08-12T19:44:10.741Z,30.07
2018-08-12T19:46:46.681Z,30.08
2018-08-12T19:49:20.762Z,30.11
2018-08-12T19:51:56.746Z,30.11
2018-08-12T19:54:34.271Z,30.13
2018-08-12T19:57:11.121Z,30.13
2018-08-12T19:59:47.284Z,30.15
2018-08-12T20:02:23.345Z,30.16
2018-08-12T20:04:58.471Z,30.17
2018-08-12T20:07:35.639Z,30.19
2018-08-12T20:10:14.285Z,30.19
2018-08-12T20:12:49.855Z,30.17
2018-08-12T20:15:25.879Z,30.22
2018-08-12T20:18:02.688Z,30.23
2018-08-12T20:20:39.591Z,30.16
2018-08-12T20:23:16.114Z,30.03
2018-08-12T20:25:52.248Z,29.92
2018-08-12T20:28:25.979Z,29.83
2018-08-12T20:31:03.609Z,29.76
2018-08-12T20:33:39.401Z,29.64
2018-08-12T20:36:15.342Z,29.57
2018-08-12T20:41:39.055Z,29.40
2018-08-12T20:44:16.206Z,29.28
2018-08-12T20:46:50.047Z,29.21
2018-08-12T20:49:26.350Z,29.16
2018-08-12T20:52:02.255Z,29.03
2018-08-12T20:57:31.351Z,28.84
2018-08-12T21:00:05.059Z,28.80
2018-08-12T21:02:38.874Z,28.74
2018-08-12T21:05:15.544Z,28.68
2018-08-12T21:07:52.720Z,28.63
2018-08-12T21:10:28.884Z,28.57
2018-08-12T21:13:05.929Z,28.51
2018-08-12T21:18:25.214Z,28.55
2018-08-12T21:21:01.076Z,28.62
2018-08-12T21:23:37.004Z,28.68
2018-08-12T21:26:12.955Z,28.75
2018-08-12T21:28:50.128Z,28.83
2018-08-12T21:31:26.883Z,28.90
2018-08-12T21:34:02.916Z,28.91
2018-08-12T21:36:38.713Z,28.86
2018-08-12T21:39:16.729Z,28.79
2018-08-12T21:41:52.720Z,28.80
2018-08-12T21:44:28.692Z,28.87
2018-08-12T21:47:05.818Z,28.97
2018-08-12T21:49:41.380Z,28.97
2018-08-12T21:52:17.152Z,28.91
2018-08-12T21:54:53.913Z,28.83
2018-08-12T21:57:30.662Z,28.74
2018-08-12T22:00:06.945Z,28.72
2018-08-12T22:02:42.888Z,28.75
2018-08-12T22:05:16.642Z,28.82
2018-08-12T22:07:53.913Z,28.88
2018-08-12T22:10:29.733Z,28.93
2018-08-12T22:13:07.927Z,28.90
2018-08-12T22:15:45.510Z,28.82
2018-08-12T22:18:21.164Z,28.79
2018-08-12T22:20:58.094Z,28.78
2018-08-12T22:23:31.861Z,28.80
2018-08-12T22:26:07.688Z,28.74
2018-08-12T22:28:43.913Z,28.67
2018-08-12T22:31:19.929Z,28.68
2018-08-12T22:33:56.783Z,28.72
2018-08-12T22:36:32.697Z,28.75
2018-08-12T22:42:09.342Z,28.85
2018-08-12T22:44:45.620Z,28.78
2018-08-12T22:47:21.568Z,28.75
2018-08-12T22:49:59.135Z,28.68
2018-08-12T22:52:34.942Z,28.68
2018-08-12T22:55:12.256Z,28.70
2018-08-12T22:57:49.351Z,28.72
2018-08-12T23:00:28.636Z,28.76
2018-08-12T23:03:06.915Z,28.81
2018-08-12T23:05:42.773Z,28.80
2018-08-12T23:08:19.108Z,28.73
2018-08-12T23:10:55.680Z,28.65
2018-08-12T23:13:33.905Z,28.59
2018-08-12T23:16:27.280Z,28.62
2018-08-12T23:19:03.677Z,28.66
2018-08-12T23:21:39.355Z,28.68
2018-08-12T23:24:15.981Z,28.74
2018-08-12T23:26:52.918Z,28.77
2018-08-12T23:29:30.681Z,28.74
2018-08-12T23:32:08.928Z,28.66
2018-08-12T23:34:44.926Z,28.58
2018-08-12T23:37:21.255Z,28.56
2018-08-12T23:39:57.369Z,28.60
2018-08-12T23:42:35.328Z,28.65
2018-08-12T23:45:11.951Z,28.75
2018-08-12T23:47:49.410Z,28.83
2018-08-12T23:50:25.115Z,28.90
2018-08-12T23:53:01.075Z,28.90
2018-08-12T23:58:32.937Z,28.74
